Time;durP1;ratioP1;P1;durP2;ratioP2;P2;SDS_P1;SDS_P2;PMS_P1;PMS_P2;Temp;Humidity;BMP_temperature;BMP_pressure;BME280_temperature;BME280_humidity;BME280_pressure;Samples;Min_cycle;Max_cycle;Signal;HPM_P1;HPM_P2
2021/09/11 00:00:57;;;;;;;14.17;8.60;;;;;;;;;;5022719;28;20108;-63
2021/09/11 00:03:23;;;;;;;10.68;7.78;;;;;;;;;;5022487;28;20295;-63
2021/09/11 00:05:48;;;;;;;10.48;8.25;;;;;;;;;;5023257;28;20390;-63
2021/09/11 00:08:13;;;;;;;12.20;9.02;;;;;;;;;;5017973;28;20114;-63
2021/09/11 00:10:38;;;;;;;14.13;9.47;;;;;;;;;;5027985;28;20029;-63
2021/09/11 00:13:04;;;;;;;13.88;9.00;;;;;;;;;;5025598;28;20374;-63
2021/09/11 00:15:32;;;;;;;12.88;9.23;;;;;;;;;;5028327;28;20032;-62
2021/09/11 00:17:58;;;;;;;12.73;9.63;;;;;;;;;;5024590;28;20033;-62
2021/09/11 00:20:23;;;;;;;13.20;10.27;;;;;;;;;;5027168;28;20014;-63
2021/09/11 00:22:49;;;;;;;14.60;9.65;;;;;;;;;;5026734;28;20447;-63
2021/09/11 00:25:14;;;;;;;14.27;9.52;;;;;;;;;;5024852;28;20416;-63
2021/09/11 00:27:40;;;;;;;14.07;9.23;;;;;;;;;;5032608;28;20039;-63
2021/09/11 00:30:05;;;;;;;14.02;8.65;;;;;;;;;;5023314;28;20021;-62
2021/09/11 00:32:30;;;;;;;13.65;9.52;;;;;;;;;;5028584;28;20061;-62
2021/09/11 00:34:55;;;;;;;13.67;9.17;;;;;;;;;;5025411;28;20068;-63
2021/09/11 00:37:21;;;;;;;14.07;9.23;;;;;;;;;;5031243;28;20264;-63
2021/09/11 00:39:46;;;;;;;12.97;9.67;;;;;;;;;;5023952;28;20303;-63
2021/09/11 00:42:11;;;;;;;12.13;8.77;;;;;;;;;;5024249;28;20296;-63
2021/09/11 00:44:36;;;;;;;15.33;11.17;;;;;;;;;;5027341;28;20287;-62
2021/09/11 00:47:01;;;;;;;16.98;10.43;;;;;;;;;;5022867;28;20299;-62
2021/09/11 00:49:26;;;;;;;16.20;10.43;;;;;;;;;;5028788;28;20032;-62
2021/09/11 00:51:52;;;;;;;13.00;9.63;;;;;;;;;;5023659;28;20026;-62
2021/09/11 00:54:17;;;;;;;15.10;10.00;;;;;;;;;;5020213;28;20412;-62
2021/09/11 00:56:42;;;;;;;14.38;10.18;;;;;;;;;;5025810;28;20524;-62
2021/09/11 00:59:07;;;;;;;14.55;10.25;;;;;;;;;;5032302;28;20473;-63
2021/09/11 01:01:32;;;;;;;15.87;11.10;;;;;;;;;;5026131;28;20110;-63
2021/09/11 01:03:58;;;;;;;12.97;9.73;;;;;;;;;;5023165;28;20340;-63
2021/09/11 01:06:23;;;;;;;15.27;10.55;;;;;;;;;;5027817;28;20365;-62
2021/09/11 01:08:48;;;;;;;16.02;10.85;;;;;;;;;;5029982;28;20049;-62
2021/09/11 01:11:14;;;;;;;14.23;10.38;;;;;;;;;;5027653;28;20127;-64
2021/09/11 01:13:39;;;;;;;16.73;11.70;;;;;;;;;;5024971;28;20029;-63
2021/09/11 01:16:05;;;;;;;14.18;10.65;;;;;;;;;;5019582;28;20037;-62
2021/09/11 01:18:32;;;;;;;16.05;11.57;;;;;;;;;;5026977;28;20029;-63
2021/09/11 01:20:57;;;;;;;15.90;10.93;;;;;;;;;;5028688;28;20022;-62
2021/09/11 01:23:23;;;;;;;16.25;10.52;;;;;;;;;;5022717;28;20525;-62
2021/09/11 01:25:48;;;;;;;14.82;11.20;;;;;;;;;;5030465;28;20028;-63
2021/09/11 01:28:14;;;;;;;16.33;10.68;;;;;;;;;;5028902;28;20029;-62
2021/09/11 01:30:39;;;;;;;16.30;10.82;;;;;;;;;;5029723;28;20021;-63
2021/09/11 01:33:04;;;;;;;16.15;11.98;;;;;;;;;;5024650;28;20022;-63
2021/09/11 01:35:30;;;;;;;15.97;11.07;;;;;;;;;;5024785;28;20022;-63
2021/09/11 01:37:55;;;;;;;17.67;12.68;;;;;;;;;;5027186;28;20764;-63
2021/09/11 01:40:21;;;;;;;16.30;12.50;;;;;;;;;;5025753;28;20025;-64
2021/09/11 01:42:46;;;;;;;18.45;12.10;;;;;;;;;;5019848;28;20528;-63
2021/09/11 01:45:15;;;;;;;16.35;12.10;;;;;;;;;;5021999;28;20106;-63
2021/09/11 01:47:41;;;;;;;19.70;13.52;;;;;;;;;;5021890;28;20037;-63
2021/09/11 01:50:07;;;;;;;21.83;14.52;;;;;;;;;;5027938;28;20338;-62
2021/09/11 01:52:32;;;;;;;21.98;16.13;;;;;;;;;;5029948;28;20413;-63
2021/09/11 01:54:58;;;;;;;23.00;14.10;;;;;;;;;;5025425;28;20037;-63
2021/09/11 01:57:23;;;;;;;20.80;14.45;;;;;;;;;;5026917;28;20101;-63
2021/09/11 01:59:48;;;;;;;19.73;14.13;;;;;;;;;;5020275;28;20052;-62
2021/09/11 02:02:13;;;;;;;20.15;14.73;;;;;;;;;;5017861;28;20277;-63
2021/09/11 02:04:38;;;;;;;19.10;14.18;;;;;;;;;;5020343;28;20029;-62
2021/09/11 02:07:05;;;;;;;22.67;14.93;;;;;;;;;;5028705;28;20492;-64
2021/09/11 02:09:30;;;;;;;22.27;15.25;;;;;;;;;;5028125;28;20072;-63
2021/09/11 02:11:56;;;;;;;18.02;12.77;;;;;;;;;;5022154;28;20021;-62
2021/09/11 02:14:21;;;;;;;19.73;15.15;;;;;;;;;;5017897;28;20453;-63
2021/09/11 02:16:46;;;;;;;21.63;14.93;;;;;;;;;;5028579;28;20104;-63
2021/09/11 02:19:12;;;;;;;20.65;14.05;;;;;;;;;;5024080;28;20105;-63
2021/09/11 02:21:37;;;;;;;27.00;15.30;;;;;;;;;;5027848;28;20127;-63
2021/09/11 02:24:02;;;;;;;21.23;14.65;;;;;;;;;;5028019;28;20033;-63
2021/09/11 02:26:27;;;;;;;21.50;14.88;;;;;;;;;;5028241;28;20017;-62
2021/09/11 02:28:53;;;;;;;19.52;13.73;;;;;;;;;;5030962;28;20041;-62
2021/09/11 02:31:18;;;;;;;19.50;13.57;;;;;;;;;;5028261;28;20017;-62
2021/09/11 02:33:44;;;;;;;20.02;14.27;;;;;;;;;;5025877;28;20095;-63
2021/09/11 02:36:09;;;;;;;17.52;13.05;;;;;;;;;;5020974;28;20017;-63
2021/09/11 02:38:34;;;;;;;17.65;13.63;;;;;;;;;;5021377;28;20053;-63
2021/09/11 02:40:59;;;;;;;18.08;13.52;;;;;;;;;;5023472;28;20047;-63
2021/09/11 02:43:25;;;;;;;19.38;13.52;;;;;;;;;;5024270;28;20044;-63
2021/09/11 02:45:50;;;;;;;18.33;13.13;;;;;;;;;;5025774;28;20025;-62
2021/09/11 02:48:15;;;;;;;18.80;13.10;;;;;;;;;;5020880;28;20449;-64
2021/09/11 02:50:40;;;;;;;16.85;12.15;;;;;;;;;;5026523;28;20330;-63
2021/09/11 02:53:05;;;;;;;14.38;11.27;;;;;;;;;;5028463;28;20033;-63
2021/09/11 02:55:31;;;;;;;15.57;11.33;;;;;;;;;;5024437;28;20414;-62
2021/09/11 02:57:56;;;;;;;14.13;11.00;;;;;;;;;;5026621;28;20304;-63
2021/09/11 03:00:21;;;;;;;13.13;10.13;;;;;;;;;;5026722;28;20631;-63
2021/09/11 03:02:46;;;;;;;14.63;10.70;;;;;;;;;;5028073;28;20315;-64
2021/09/11 03:05:11;;;;;;;13.25;9.82;;;;;;;;;;5025207;28;20260;-63
2021/09/11 03:07:36;;;;;;;11.63;8.73;;;;;;;;;;5020666;28;20041;-62
2021/09/11 03:10:02;;;;;;;13.48;8.98;;;;;;;;;;5028178;28;20075;-62
2021/09/11 03:12:27;;;;;;;11.20;8.55;;;;;;;;;;5018138;28;20037;-63
2021/09/11 03:14:52;;;;;;;11.70;8.07;;;;;;;;;;5024934;28;20385;-63
2021/09/11 03:17:17;;;;;;;15.67;8.90;;;;;;;;;;5021955;28;20037;-62
2021/09/11 03:19:42;;;;;;;11.83;8.57;;;;;;;;;;5027549;28;20588;-63
2021/09/11 03:22:08;;;;;;;11.70;8.40;;;;;;;;;;5025489;28;20446;-63
2021/09/11 03:24:33;;;;;;;11.68;8.13;;;;;;;;;;5027944;28;20267;-63
2021/09/11 03:26:58;;;;;;;10.30;8.02;;;;;;;;;;5030204;28;20021;-62
2021/09/11 03:29:23;;;;;;;10.80;7.77;;;;;;;;;;5023990;28;20200;-66
2021/09/11 03:31:48;;;;;;;10.25;7.22;;;;;;;;;;5021643;28;20273;-63
2021/09/11 03:34:14;;;;;;;10.67;7.97;;;;;;;;;;5019004;28;20025;-63
2021/09/11 03:36:39;;;;;;;12.75;8.02;;;;;;;;;;5028285;28;20654;-63
2021/09/11 03:39:04;;;;;;;9.37;7.03;;;;;;;;;;5025337;28;20812;-62
2021/09/11 03:41:29;;;;;;;10.52;7.80;;;;;;;;;;5016608;28;20289;-63
2021/09/11 03:43:54;;;;;;;10.40;6.90;;;;;;;;;;5019162;28;20109;-66
2021/09/11 03:46:19;;;;;;;10.50;8.00;;;;;;;;;;5024686;28;21300;-67
2021/09/11 03:48:45;;;;;;;13.83;8.03;;;;;;;;;;5025405;28;20025;-66
2021/09/11 03:51:10;;;;;;;10.30;7.93;;;;;;;;;;5020191;28;20271;-68
2021/09/11 03:53:35;;;;;;;12.40;8.23;;;;;;;;;;5026146;28;20096;-66
2021/09/11 03:56:00;;;;;;;10.93;8.03;;;;;;;;;;5030051;28;20488;-66
2021/09/11 03:58:25;;;;;;;10.73;7.27;;;;;;;;;;5022671;28;20344;-68
2021/09/11 04:00:51;;;;;;;11.07;8.45;;;;;;;;;;5023320;28;20299;-66
2021/09/11 04:03:16;;;;;;;11.00;7.90;;;;;;;;;;5031314;28;20041;-66
2021/09/11 04:05:41;;;;;;;11.73;7.57;;;;;;;;;;5027898;28;20378;-66
2021/09/11 04:08:06;;;;;;;9.83;7.10;;;;;;;;;;5030465;28;20296;-66
2021/09/11 04:10:31;;;;;;;10.97;7.53;;;;;;;;;;5022358;28;20924;-66
2021/09/11 04:12:56;;;;;;;11.02;7.35;;;;;;;;;;5028392;28;20295;-66
2021/09/11 04:15:22;;;;;;;11.27;7.50;;;;;;;;;;5019799;28;20061;-67
2021/09/11 04:17:47;;;;;;;11.50;7.07;;;;;;;;;;5030692;28;20299;-65
2021/09/11 04:20:12;;;;;;;10.00;6.68;;;;;;;;;;5030607;28;20100;-67
2021/09/11 04:22:37;;;;;;;9.73;7.05;;;;;;;;;;5026992;28;20030;-66
2021/09/11 04:25:03;;;;;;;11.40;7.07;;;;;;;;;;5027875;28;20109;-66
2021/09/11 04:27:28;;;;;;;12.20;7.88;;;;;;;;;;5027629;28;20873;-66
2021/09/11 04:29:53;;;;;;;10.57;7.82;;;;;;;;;;5024890;28;20096;-65
2021/09/11 04:32:19;;;;;;;12.43;7.50;;;;;;;;;;5022012;28;20018;-66
2021/09/11 04:34:44;;;;;;;9.37;7.23;;;;;;;;;;5024332;28;20457;-65
2021/09/11 04:37:09;;;;;;;11.75;7.63;;;;;;;;;;5025428;28;20279;-67
2021/09/11 04:39:34;;;;;;;11.95;7.97;;;;;;;;;;5031516;28;20017;-67
2021/09/11 04:41:59;;;;;;;11.40;8.15;;;;;;;;;;5030189;28;20057;-67
2021/09/11 04:44:27;;;;;;;13.00;8.88;;;;;;;;;;5026454;28;20319;-66
2021/09/11 04:46:52;;;;;;;13.75;8.35;;;;;;;;;;5031228;28;20065;-66
2021/09/11 04:49:17;;;;;;;11.07;7.78;;;;;;;;;;5031365;28;20425;-67
2021/09/11 04:51:43;;;;;;;12.43;8.73;;;;;;;;;;5031354;28;20112;-67
2021/09/11 04:54:08;;;;;;;11.23;8.13;;;;;;;;;;5030955;28;20268;-66
2021/09/11 04:56:33;;;;;;;12.90;7.93;;;;;;;;;;5026771;28;20032;-66
2021/09/11 04:58:58;;;;;;;13.98;8.38;;;;;;;;;;5036614;28;20109;-66
2021/09/11 05:01:23;;;;;;;11.13;8.07;;;;;;;;;;5030791;28;20034;-66
2021/09/11 05:03:48;;;;;;;11.55;8.50;;;;;;;;;;5029638;28;20286;-66
2021/09/11 05:06:14;;;;;;;11.05;7.72;;;;;;;;;;5030094;28;20479;-66
2021/09/11 05:08:39;;;;;;;10.90;7.22;;;;;;;;;;5031155;28;20431;-66
2021/09/11 05:11:04;;;;;;;10.52;7.20;;;;;;;;;;5030946;28;20263;-66
2021/09/11 05:13:29;;;;;;;11.15;8.00;;;;;;;;;;5031098;28;20139;-67
2021/09/11 05:15:54;;;;;;;10.98;7.65;;;;;;;;;;5028926;28;20018;-67
2021/09/11 05:18:20;;;;;;;9.63;6.63;;;;;;;;;;5031053;28;20056;-67
2021/09/11 05:20:45;;;;;;;10.70;7.28;;;;;;;;;;5031095;28;20349;-67
2021/09/11 05:23:10;;;;;;;9.70;7.43;;;;;;;;;;5030808;28;20017;-67
2021/09/11 05:25:35;;;;;;;10.07;6.80;;;;;;;;;;5026037;28;20356;-65
2021/09/11 05:28:00;;;;;;;9.85;6.75;;;;;;;;;;5030511;28;20338;-68
2021/09/11 05:30:26;;;;;;;11.70;7.10;;;;;;;;;;5029266;28;20022;-66
2021/09/11 05:32:51;;;;;;;9.60;6.75;;;;;;;;;;5020197;28;20018;-67
2021/09/11 05:35:16;;;;;;;9.52;6.63;;;;;;;;;;5023414;28;20022;-67
2021/09/11 05:37:41;;;;;;;8.20;6.10;;;;;;;;;;5024831;28;20369;-67
2021/09/11 05:40:06;;;;;;;9.90;6.55;;;;;;;;;;5025404;28;20052;-67
2021/09/11 05:42:35;;;;;;;11.23;6.68;;;;;;;;;;5023852;28;20045;-67
2021/09/11 05:45:00;;;;;;;9.73;7.00;;;;;;;;;;5023680;28;20026;-68
2021/09/11 05:47:25;;;;;;;9.75;7.13;;;;;;;;;;5020665;28;20030;-68
2021/09/11 05:49:50;;;;;;;10.02;7.50;;;;;;;;;;5021405;28;20053;-66
2021/09/11 05:52:16;;;;;;;10.15;7.50;;;;;;;;;;5026081;28;20049;-67
2021/09/11 05:54:41;;;;;;;11.15;7.60;;;;;;;;;;5017043;28;20469;-65
2021/09/11 05:57:06;;;;;;;10.48;7.53;;;;;;;;;;5019113;28;20018;-67
2021/09/11 05:59:31;;;;;;;9.15;7.00;;;;;;;;;;5022123;28;20640;-67
2021/09/11 06:01:56;;;;;;;10.83;8.17;;;;;;;;;;5025860;28;20136;-67
2021/09/11 06:04:21;;;;;;;10.45;7.60;;;;;;;;;;5019121;28;20276;-68
2021/09/11 06:06:47;;;;;;;10.13;7.28;;;;;;;;;;5018648;28;20502;-68
2021/09/11 06:09:12;;;;;;;9.95;7.35;;;;;;;;;;5018667;28;20484;-67
2021/09/11 06:11:37;;;;;;;10.83;7.93;;;;;;;;;;5020029;28;20021;-67
2021/09/11 06:14:02;;;;;;;9.80;7.37;;;;;;;;;;5027155;28;20839;-68
2021/09/11 06:16:27;;;;;;;10.35;7.13;;;;;;;;;;5022318;28;20273;-67
2021/09/11 06:18:52;;;;;;;11.48;7.40;;;;;;;;;;5019211;28;20037;-67
2021/09/11 06:21:18;;;;;;;11.77;8.13;;;;;;;;;;5025647;28;20022;-67
2021/09/11 06:23:43;;;;;;;11.80;8.18;;;;;;;;;;5018815;28;20030;-67
2021/09/11 06:26:08;;;;;;;12.18;8.27;;;;;;;;;;5023986;28;20107;-66
2021/09/11 06:28:33;;;;;;;11.27;8.07;;;;;;;;;;5030747;28;20120;-66
2021/09/11 06:30:58;;;;;;;11.03;7.97;;;;;;;;;;5019117;28;20511;-66
2021/09/11 06:33:23;;;;;;;9.75;7.15;;;;;;;;;;5019340;28;20292;-67
2021/09/11 06:35:49;;;;;;;10.32;7.50;;;;;;;;;;5021569;28;20037;-66
2021/09/11 06:38:14;;;;;;;12.10;8.23;;;;;;;;;;5025642;28;20032;-67
2021/09/11 06:40:39;;;;;;;11.18;8.07;;;;;;;;;;5022112;28;20669;-67
2021/09/11 06:43:04;;;;;;;11.33;8.17;;;;;;;;;;5018740;28;20030;-67
2021/09/11 06:45:30;;;;;;;11.02;7.35;;;;;;;;;;5022446;28;20688;-67
2021/09/11 06:47:55;;;;;;;10.60;7.70;;;;;;;;;;5025119;28;20460;-67
2021/09/11 06:50:20;;;;;;;11.90;7.63;;;;;;;;;;5021133;28;20490;-67
2021/09/11 06:52:45;;;;;;;11.65;7.65;;;;;;;;;;5014447;28;20095;-65
2021/09/11 06:55:11;;;;;;;10.80;7.83;;;;;;;;;;5019160;28;20108;-65
2021/09/11 06:57:36;;;;;;;9.75;7.82;;;;;;;;;;5013098;28;20285;-67
2021/09/11 07:00:03;;;;;;;9.40;7.25;;;;;;;;;;5025942;28;20028;-68
2021/09/11 07:02:28;;;;;;;11.25;7.38;;;;;;;;;;5025283;28;20018;-67
2021/09/11 07:04:53;;;;;;;9.07;6.30;;;;;;;;;;5025383;28;20528;-68
2021/09/11 07:07:18;;;;;;;9.10;6.63;;;;;;;;;;5027034;28;20265;-66
2021/09/11 07:09:43;;;;;;;10.07;7.13;;;;;;;;;;5029178;28;20268;-67
2021/09/11 07:12:09;;;;;;;9.47;6.70;;;;;;;;;;5028758;28;20260;-67
2021/09/11 07:14:34;;;;;;;9.05;6.78;;;;;;;;;;5028993;28;20363;-67
2021/09/11 07:16:59;;;;;;;9.10;6.57;;;;;;;;;;5029044;28;20014;-68
2021/09/11 07:19:24;;;;;;;8.23;5.75;;;;;;;;;;5025328;28;20496;-67
2021/09/11 07:21:50;;;;;;;9.65;5.70;;;;;;;;;;5029089;28;20332;-67
2021/09/11 07:24:15;;;;;;;10.27;5.90;;;;;;;;;;5028304;28;20030;-67
2021/09/11 07:26:40;;;;;;;10.23;5.80;;;;;;;;;;5028235;28;20028;-67
2021/09/11 07:29:05;;;;;;;6.73;5.23;;;;;;;;;;5022209;28;20299;-66
2021/09/11 07:31:30;;;;;;;7.60;5.85;;;;;;;;;;5031701;28;20287;-67
2021/09/11 07:33:55;;;;;;;8.68;5.32;;;;;;;;;;5029520;28;20407;-68
2021/09/11 07:36:21;;;;;;;7.72;5.18;;;;;;;;;;5030818;28;20028;-67
2021/09/11 07:38:46;;;;;;;6.88;4.80;;;;;;;;;;5020885;28;20021;-67
2021/09/11 07:41:11;;;;;;;6.70;5.05;;;;;;;;;;5028178;28;20053;-66
2021/09/11 07:43:36;;;;;;;7.30;4.90;;;;;;;;;;5031350;28;20032;-67
2021/09/11 07:46:01;;;;;;;7.38;5.20;;;;;;;;;;5032504;28;20343;-68
2021/09/11 07:48:27;;;;;;;6.80;4.65;;;;;;;;;;5031909;28;20022;-67
2021/09/11 07:50:52;;;;;;;6.97;4.95;;;;;;;;;;5029554;28;20062;-67
2021/09/11 07:53:18;;;;;;;6.65;5.30;;;;;;;;;;5032256;28;20029;-67
2021/09/11 07:55:43;;;;;;;7.10;4.90;;;;;;;;;;5032777;28;20100;-67
2021/09/11 07:58:08;;;;;;;7.88;4.97;;;;;;;;;;5032155;28;20542;-68
2021/09/11 08:00:34;;;;;;;8.18;5.60;;;;;;;;;;5027298;28;20038;-68
2021/09/11 08:02:59;;;;;;;6.50;4.78;;;;;;;;;;5031685;28;20124;-67
2021/09/11 08:05:24;;;;;;;8.93;5.57;;;;;;;;;;5029277;28;20021;-68
2021/09/11 08:07:50;;;;;;;6.97;4.95;;;;;;;;;;5030309;28;20033;-61
2021/09/11 08:10:15;;;;;;;6.95;5.53;;;;;;;;;;5028437;28;20060;-62
2021/09/11 08:12:40;;;;;;;9.07;5.40;;;;;;;;;;5028694;28;20144;-63
2021/09/11 08:15:06;;;;;;;6.50;4.95;;;;;;;;;;5026944;28;20032;-62
2021/09/11 08:17:31;;;;;;;9.70;5.30;;;;;;;;;;5024650;28;20026;-62
2021/09/11 08:19:56;;;;;;;6.50;4.77;;;;;;;;;;5023820;28;20010;-62
2021/09/11 08:22:21;;;;;;;7.73;5.37;;;;;;;;;;5022690;28;20780;-62
2021/09/11 08:24:47;;;;;;;7.95;5.30;;;;;;;;;;5023160;28;20263;-62
2021/09/11 08:27:12;;;;;;;7.13;5.10;;;;;;;;;;5025670;28;20152;-62
2021/09/11 08:29:37;;;;;;;7.07;4.78;;;;;;;;;;5025582;28;20787;-62
2021/09/11 08:32:03;;;;;;;6.32;5.20;;;;;;;;;;5031087;28;20032;-62
2021/09/11 08:34:28;;;;;;;6.90;4.70;;;;;;;;;;5026194;28;20080;-62
2021/09/11 08:36:53;;;;;;;8.90;5.22;;;;;;;;;;5029272;28;20017;-62
2021/09/11 08:39:19;;;;;;;8.35;4.90;;;;;;;;;;5022301;28;20025;-62
2021/09/11 08:41:44;;;;;;;9.07;4.88;;;;;;;;;;5022081;28;20041;-62
2021/09/11 08:44:09;;;;;;;5.90;4.60;;;;;;;;;;5025255;28;20049;-61
2021/09/11 08:46:35;;;;;;;6.70;4.43;;;;;;;;;;5026853;28;20028;-61
2021/09/11 08:49:00;;;;;;;6.80;4.63;;;;;;;;;;5023653;28;20033;-63
2021/09/11 08:51:25;;;;;;;7.33;4.27;;;;;;;;;;5019734;28;20021;-62
2021/09/11 08:53:50;;;;;;;6.05;4.18;;;;;;;;;;5023595;28;20273;-61
2021/09/11 08:56:16;;;;;;;5.47;4.00;;;;;;;;;;5018066;28;20113;-62
2021/09/11 08:58:43;;;;;;;6.47;4.57;;;;;;;;;;5024333;28;20041;-62
2021/09/11 09:01:09;;;;;;;7.05;4.88;;;;;;;;;;5029217;28;20076;-61
2021/09/11 09:03:35;;;;;;;5.95;4.38;;;;;;;;;;5030058;28;20041;-61
2021/09/11 09:06:10;;;;;;;6.72;4.60;;;;;;;;;;5027082;28;20025;-61
2021/09/11 09:08:35;;;;;;;8.30;6.10;;;;;;;;;;5026348;28;20121;-61
2021/09/11 09:11:13;;;;;;;7.20;5.20;;;;;;;;;;5027946;28;20175;-62
2021/09/11 09:14:17;;;;;;;8.27;5.30;;;;;;;;;;5030218;28;20295;-61
2021/09/11 09:16:43;;;;;;;7.70;5.18;;;;;;;;;;4996395;28;20413;-62
2021/09/11 09:19:11;;;;;;;7.13;4.82;;;;;;;;;;4997894;28;20030;-61
2021/09/11 09:21:37;;;;;;;6.90;4.68;;;;;;;;;;4997304;28;20490;-62
2021/09/11 09:24:03;;;;;;;8.35;5.30;;;;;;;;;;4999387;28;20045;-62
2021/09/11 09:26:29;;;;;;;9.13;5.65;;;;;;;;;;5000824;28;20053;-60
2021/09/11 09:29:05;;;;;;;5.97;4.68;;;;;;;;;;5011714;28;20034;-62
2021/09/11 09:31:30;;;;;;;9.60;5.93;;;;;;;;;;4998259;28;20544;-62
2021/09/11 09:33:55;;;;;;;7.95;4.60;;;;;;;;;;5000232;28;20181;-61
2021/09/11 09:36:21;;;;;;;7.07;5.18;;;;;;;;;;4998531;28;20026;-62
2021/09/11 09:38:46;;;;;;;10.05;6.15;;;;;;;;;;5002323;28;20046;-62
2021/09/11 09:41:12;;;;;;;8.30;5.97;;;;;;;;;;5000487;28;20049;-61
2021/09/11 09:43:40;;;;;;;10.63;6.25;;;;;;;;;;4981483;28;20042;-62
2021/09/11 09:46:14;;;;;;;11.07;6.50;;;;;;;;;;4997601;28;20493;-61
2021/09/11 09:48:40;;;;;;;8.05;5.97;;;;;;;;;;5000645;28;20046;-61
2021/09/11 09:51:09;;;;;;;7.22;5.10;;;;;;;;;;5009589;28;20034;-62
2021/09/11 09:53:35;;;;;;;7.90;5.45;;;;;;;;;;5029670;28;20033;-61
2021/09/11 09:56:01;;;;;;;8.48;5.45;;;;;;;;;;5029275;28;20044;-61
2021/09/11 09:58:26;;;;;;;8.07;4.90;;;;;;;;;;5025136;28;20037;-62
2021/09/11 10:00:51;;;;;;;8.02;5.60;;;;;;;;;;5022541;28;20028;-61
2021/09/11 10:03:16;;;;;;;10.23;5.82;;;;;;;;;;5028246;28;20033;-62
2021/09/11 10:05:42;;;;;;;7.90;5.55;;;;;;;;;;5027337;28;20028;-62
2021/09/11 10:08:08;;;;;;;6.70;5.47;;;;;;;;;;5022484;28;20091;-62
2021/09/11 10:10:35;;;;;;;7.85;5.15;;;;;;;;;;5025426;28;20366;-62
2021/09/11 10:13:08;;;;;;;6.97;5.25;;;;;;;;;;5024659;28;20052;-62
2021/09/11 10:15:35;;;;;;;7.55;5.90;;;;;;;;;;5022831;28;20670;-62
2021/09/11 10:18:01;;;;;;;8.57;4.97;;;;;;;;;;5026560;28;20025;-62
2021/09/11 10:20:26;;;;;;;7.82;6.13;;;;;;;;;;5027069;28;20044;-61
2021/09/11 10:23:05;;;;;;;7.97;5.57;;;;;;;;;;5021632;28;20080;-60
2021/09/11 10:25:43;;;;;;;7.43;5.43;;;;;;;;;;5021086;28;20029;-63
2021/09/11 10:28:13;;;;;;;7.07;5.25;;;;;;;;;;5025235;28;20310;-61
2021/09/11 10:30:57;;;;;;;8.82;6.13;;;;;;;;;;5017925;28;20436;-62
2021/09/11 10:33:39;;;;;;;6.65;5.13;;;;;;;;;;5028580;28;20043;-61
2021/09/11 10:36:04;;;;;;;8.05;5.80;;;;;;;;;;5022392;28;20170;-62
2021/09/11 10:38:37;;;;;;;7.45;5.20;;;;;;;;;;5023593;28;20108;-61
2021/09/11 10:41:06;;;;;;;6.45;4.63;;;;;;;;;;5021923;28;20103;-62
2021/09/11 10:43:32;;;;;;;6.88;5.18;;;;;;;;;;5028606;28;20018;-62
2021/09/11 10:45:57;;;;;;;5.95;4.78;;;;;;;;;;5028024;28;20029;-61
2021/09/11 10:48:32;;;;;;;7.18;4.50;;;;;;;;;;5021868;28;20033;-62
2021/09/11 10:51:03;;;;;;;6.05;4.45;;;;;;;;;;5020052;28;20499;-62
2021/09/11 10:53:28;;;;;;;7.60;5.60;;;;;;;;;;5019818;28;20022;-61
2021/09/11 10:55:53;;;;;;;20.53;5.67;;;;;;;;;;5023877;28;20167;-62
2021/09/11 10:58:22;;;;;;;7.25;4.78;;;;;;;;;;5024564;28;20265;-61
2021/09/11 11:00:57;;;;;;;7.10;4.67;;;;;;;;;;5023942;28;20032;-61
2021/09/11 11:03:23;;;;;;;9.13;4.72;;;;;;;;;;5024856;28;20028;-62
2021/09/11 11:05:59;;;;;;;6.57;4.43;;;;;;;;;;5022285;28;20029;-62
2021/09/11 11:08:24;;;;;;;5.70;4.53;;;;;;;;;;5022662;28;20489;-62
2021/09/11 11:10:49;;;;;;;7.00;4.53;;;;;;;;;;5023032;28;20040;-63
2021/09/11 11:13:15;;;;;;;6.95;4.18;;;;;;;;;;5021177;28;20025;-62
2021/09/11 11:15:41;;;;;;;5.45;4.07;;;;;;;;;;5025566;28;20021;-62
2021/09/11 11:18:06;;;;;;;5.60;4.20;;;;;;;;;;5027859;28;20053;-62
2021/09/11 11:20:31;;;;;;;6.55;4.30;;;;;;;;;;5020268;28;20392;-62
2021/09/11 11:22:57;;;;;;;6.72;4.72;;;;;;;;;;5028665;28;20025;-62
2021/09/11 11:25:32;;;;;;;6.70;4.53;;;;;;;;;;5028453;28;20026;-62
2021/09/11 11:27:57;;;;;;;5.40;3.80;;;;;;;;;;5027762;28;20041;-63
2021/09/11 11:30:22;;;;;;;5.55;3.75;;;;;;;;;;5026397;28;20025;-62
2021/09/11 11:32:47;;;;;;;6.68;4.47;;;;;;;;;;5022319;28;20030;-61
2021/09/11 11:35:14;;;;;;;6.38;4.03;;;;;;;;;;5028576;28;20056;-62
2021/09/11 11:37:40;;;;;;;7.78;4.32;;;;;;;;;;5028646;28;20021;-62
2021/09/11 11:40:09;;;;;;;5.63;4.30;;;;;;;;;;5028622;28;20029;-62
2021/09/11 11:42:35;;;;;;;5.63;3.97;;;;;;;;;;5025825;28;20053;-62
2021/09/11 11:45:02;;;;;;;6.00;4.13;;;;;;;;;;5028130;28;20033;-62
2021/09/11 11:47:46;;;;;;;6.45;4.03;;;;;;;;;;5028535;28;20021;-62
2021/09/11 11:50:27;;;;;;;6.22;3.83;;;;;;;;;;5028016;28;20509;-61
2021/09/11 11:52:55;;;;;;;7.13;5.25;;;;;;;;;;5023554;28;20038;-61
2021/09/11 11:55:22;;;;;;;6.88;4.43;;;;;;;;;;5027935;28;20030;-62
2021/09/11 11:57:47;;;;;;;5.95;4.10;;;;;;;;;;5028252;28;20030;-62
2021/09/11 12:00:13;;;;;;;6.30;4.22;;;;;;;;;;5028594;28;20190;-62
2021/09/11 12:02:43;;;;;;;4.97;3.65;;;;;;;;;;5024318;28;20030;-61
2021/09/11 12:05:11;;;;;;;6.90;4.60;;;;;;;;;;5028440;28;20026;-62
2021/09/11 12:07:36;;;;;;;6.25;4.57;;;;;;;;;;5028351;28;20014;-62
2021/09/11 12:10:01;;;;;;;6.80;4.30;;;;;;;;;;5028086;28;20484;-62
2021/09/11 12:12:47;;;;;;;7.20;4.57;;;;;;;;;;5028505;28;20275;-62
2021/09/11 12:15:13;;;;;;;6.03;4.00;;;;;;;;;;5027886;28;20378;-62
2021/09/11 12:17:50;;;;;;;5.55;4.07;;;;;;;;;;5031905;28;20017;-62
2021/09/11 12:20:15;;;;;;;6.55;4.80;;;;;;;;;;5031559;28;20026;-61
2021/09/11 12:22:40;;;;;;;6.85;5.15;;;;;;;;;;5030628;28;20031;-62
2021/09/11 12:25:06;;;;;;;6.10;4.53;;;;;;;;;;5026687;28;20048;-62
2021/09/11 12:27:31;;;;;;;5.63;4.40;;;;;;;;;;5036367;28;20296;-61
2021/09/11 12:30:07;;;;;;;6.77;4.77;;;;;;;;;;5031691;28;20025;-62
2021/09/11 12:32:32;;;;;;;6.95;5.32;;;;;;;;;;5032092;28;20683;-62
2021/09/11 12:35:07;;;;;;;10.02;6.28;;;;;;;;;;5029778;28;20057;-62
2021/09/11 12:37:51;;;;;;;8.52;5.85;;;;;;;;;;5031698;28;20338;-62
2021/09/11 12:40:16;;;;;;;10.48;6.50;;;;;;;;;;5030170;28;20461;-61
2021/09/11 12:42:41;;;;;;;8.73;6.10;;;;;;;;;;5024840;28;20390;-62
2021/09/11 12:45:07;;;;;;;8.13;5.80;;;;;;;;;;5029482;28;20288;-63
2021/09/11 12:47:32;;;;;;;7.47;5.35;;;;;;;;;;5022414;28;21111;-63
2021/09/11 12:49:57;;;;;;;8.32;6.18;;;;;;;;;;5024504;28;20025;-63
2021/09/11 12:52:23;;;;;;;7.37;5.33;;;;;;;;;;5023519;28;20463;-63
2021/09/11 12:54:48;;;;;;;4.95;3.83;;;;;;;;;;5030122;28;20265;-62
2021/09/11 12:57:13;;;;;;;5.90;4.28;;;;;;;;;;5025059;28;20519;-63
2021/09/11 12:59:38;;;;;;;6.27;4.60;;;;;;;;;;5026771;28;20022;-63
2021/09/11 13:02:04;;;;;;;5.15;3.88;;;;;;;;;;5022754;28;20348;-62
2021/09/11 13:04:29;;;;;;;5.90;3.22;;;;;;;;;;5028613;28;20021;-63
2021/09/11 13:06:54;;;;;;;6.78;3.75;;;;;;;;;;5026382;28;20034;-62
2021/09/11 13:09:19;;;;;;;6.32;3.20;;;;;;;;;;5027658;28;20088;-62
2021/09/11 13:11:45;;;;;;;4.47;3.17;;;;;;;;;;5031219;28;20453;-62
2021/09/11 13:14:11;;;;;;;4.53;3.13;;;;;;;;;;5031171;28;20043;-62
2021/09/11 13:16:36;;;;;;;3.70;2.95;;;;;;;;;;5030306;28;20516;-63
2021/09/11 13:19:04;;;;;;;5.68;3.25;;;;;;;;;;5025200;28;20083;-63
2021/09/11 13:21:29;;;;;;;5.07;3.00;;;;;;;;;;5029967;28;20021;-62
2021/09/11 13:23:54;;;;;;;4.97;2.80;;;;;;;;;;5030814;28;20113;-62
2021/09/11 13:26:22;;;;;;;4.95;3.60;;;;;;;;;;5030666;28;20307;-62
2021/09/11 13:28:47;;;;;;;5.10;3.28;;;;;;;;;;5028055;28;20025;-62
2021/09/11 13:31:13;;;;;;;4.25;3.25;;;;;;;;;;5031050;28;20040;-61
2021/09/11 13:33:39;;;;;;;4.60;3.30;;;;;;;;;;5030363;28;20101;-62
2021/09/11 13:36:05;;;;;;;3.95;3.15;;;;;;;;;;5030420;28;20021;-62
2021/09/11 13:38:30;;;;;;;5.68;3.38;;;;;;;;;;5029089;28;20048;-63
2021/09/11 13:40:56;;;;;;;4.97;3.17;;;;;;;;;;5025100;28;20445;-62
2021/09/11 13:43:21;;;;;;;5.15;3.55;;;;;;;;;;5030230;28;20507;-63
2021/09/11 13:45:47;;;;;;;5.05;3.08;;;;;;;;;;5030494;28;20465;-64
2021/09/11 13:48:13;;;;;;;4.50;3.47;;;;;;;;;;5030266;28;20045;-63
2021/09/11 13:50:38;;;;;;;5.95;3.97;;;;;;;;;;5026932;28;20032;-62
2021/09/11 13:53:04;;;;;;;5.83;3.70;;;;;;;;;;5028080;28;20105;-62
2021/09/11 13:55:29;;;;;;;4.47;3.50;;;;;;;;;;5029703;28;20732;-62
2021/09/11 13:57:54;;;;;;;4.82;3.55;;;;;;;;;;5031818;28;20018;-63
2021/09/11 14:00:19;;;;;;;6.00;3.65;;;;;;;;;;5026799;28;20068;-63
2021/09/11 14:02:44;;;;;;;5.93;4.13;;;;;;;;;;5026488;28;20523;-63
2021/09/11 14:05:10;;;;;;;7.70;4.25;;;;;;;;;;5029696;28;20256;-62
2021/09/11 14:07:35;;;;;;;8.10;4.60;;;;;;;;;;5029738;28;20029;-61
2021/09/11 14:10:00;;;;;;;12.60;4.72;;;;;;;;;;5029731;28;20075;-62
2021/09/11 14:12:25;;;;;;;4.97;3.50;;;;;;;;;;5029815;28;20060;-62
2021/09/11 14:14:50;;;;;;;6.50;4.05;;;;;;;;;;5029730;28;20252;-64
2021/09/11 14:17:16;;;;;;;6.13;4.07;;;;;;;;;;5030082;28;20023;-62
2021/09/11 14:19:41;;;;;;;5.57;3.90;;;;;;;;;;5029620;28;20745;-63
2021/09/11 14:22:06;;;;;;;5.90;4.60;;;;;;;;;;5022644;28;20276;-62
2021/09/11 14:24:31;;;;;;;5.43;4.20;;;;;;;;;;5029803;28;20021;-62
2021/09/11 14:26:57;;;;;;;6.10;3.88;;;;;;;;;;5033471;28;20342;-63
2021/09/11 14:29:22;;;;;;;5.47;3.78;;;;;;;;;;5030420;28;20033;-62